Saint Bonnet de Bellac- Haute Vienne - France
Donnes mto: lundi, 12/03/2012
Date Horaire Temp. E. Hum. E. P.atmo. Pluie Vent Direction Direction Ensoleilleme Solaire P. de rose Temp au vent Rafales
12/03/2012 00:00 10,0 C 78 % 1029,0 hPa 0,0 mm 12,2 km/h (2 Bft) N-NE 22 0 min 0 W/m 6,3 C 8,3 C 16,9 km/h (3 Bft)
12/03/2012 00:10 9,8 C 79 % 1028,9 hPa 0,0 mm 10,4 km/h (2 Bft) N-NE 22 0 min 0 W/m 6,3 C 8,3 C 10,4 km/h (2 Bft)
12/03/2012 00:20 9,6 C 80 % 1028,9 hPa 0,0 mm 5,0 km/h (1 Bft) NE 45 0 min 0 W/m 6,3 C 9,3 C 5,0 km/h (1 Bft)
12/03/2012 00:30 9,3 C 80 % 1028,9 hPa 0,0 mm 9,0 km/h (2 Bft) N-NE 22 0 min 0 W/m 6,0 C 8,0 C 11,5 km/h (2 Bft)
12/03/2012 00:40 9,1 C 80 % 1028,8 hPa 0,0 mm 8,3 km/h (2 Bft) NE 45 0 min 0 W/m 5,8 C 7,9 C 8,3 km/h (2 Bft)
12/03/2012 00:50 8,8 C 81 % 1028,8 hPa 0,0 mm 11,2 km/h (2 Bft) NE 45 0 min 0 W/m 5,7 C 7,0 C 14,8 km/h (3 Bft)
12/03/2012 01:00 8,6 C 81 % 1028,8 hPa 0,0 mm 5,0 km/h (1 Bft) N-NE 22 0 min 0 W/m 5,5 C 8,2 C 6,1 km/h (2 Bft)
12/03/2012 01:10 8,4 C 82 % 1028,7 hPa 0,0 mm 9,4 km/h (2 Bft) NE 45 0 min 0 W/m 5,5 C 6,8 C 10,1 km/h (2 Bft)
12/03/2012 01:20 8,2 C 83 % 1028,7 hPa 0,0 mm 7,2 km/h (2 Bft) N-NE 22 0 min 0 W/m 5,5 C 7,1 C 8,3 km/h (2 Bft)
12/03/2012 01:30 7,9 C 83 % 1028,9 hPa 0,0 mm 7,2 km/h (2 Bft) N-NE 22 0 min 0 W/m 5,2 C 6,7 C 8,6 km/h (2 Bft)
12/03/2012 01:40 7,8 C 83 % 1028,9 hPa 0,0 mm 5,0 km/h (1 Bft) N-NE 22 0 min 0 W/m 5,1 C 7,3 C 7,2 km/h (2 Bft)
12/03/2012 01:50 7,6 C 83 % 1028,9 hPa 0,0 mm 7,9 km/h (2 Bft) N-NE 22 0 min 0 W/m 4,9 C 6,2 C 10,8 km/h (2 Bft)
12/03/2012 02:02 7,5 C 83 % 1028,9 hPa 0,0 mm 9,7 km/h (2 Bft) NE 45 0 min 0 W/m 4,8 C 5,7 C 14,4 km/h (3 Bft)
12/03/2012 02:10 7,4 C 84 % 1028,9 hPa 0,0 mm 7,9 km/h (2 Bft) N-NE 22 0 min 0 W/m 4,9 C 6,0 C 10,1 km/h (2 Bft)
12/03/2012 02:20 7,3 C 84 % 1029,0 hPa 0,0 mm 6,8 km/h (2 Bft) NE 45 0 min 0 W/m 4,8 C 6,1 C 8,6 km/h (2 Bft)
12/03/2012 02:30 7,2 C 84 % 1028,9 hPa 0,0 mm 8,6 km/h (2 Bft) N 360 0 min 0 W/m 4,7 C 5,6 C 13,7 km/h (3 Bft)
12/03/2012 02:40 7,1 C 85 % 1028,8 hPa 0,0 mm 6,1 km/h (2 Bft) N-NE 22 0 min 0 W/m 4,8 C 6,1 C 9,4 km/h (2 Bft)
12/03/2012 02:50 6,9 C 85 % 1028,8 hPa 0,0 mm 10,8 km/h (2 Bft) N-NE 22 0 min 0 W/m 4,6 C 4,8 C 15,1 km/h (3 Bft)
12/03/2012 03:00 6,8 C 85 % 1028,8 hPa 0,0 mm 7,2 km/h (2 Bft) N 360 0 min 0 W/m 4,5 C 5,5 C 10,1 km/h (2 Bft)
12/03/2012 03:10 6,6 C 85 % 1028,8 hPa 0,0 mm 5,8 km/h (2 Bft) NE 45 0 min 0 W/m 4,3 C 5,6 C 9,4 km/h (2 Bft)
12/03/2012 03:20 6,5 C 85 % 1028,8 hPa 0,0 mm 5,8 km/h (2 Bft) NE 45 0 min 0 W/m 4,2 C 5,5 C 6,8 km/h (2 Bft)
12/03/2012 03:30 6,4 C 85 % 1028,7 hPa 0,0 mm 5,0 km/h (1 Bft) NE 45 0 min 0 W/m 4,1 C 5,7 C 6,5 km/h (2 Bft)
12/03/2012 03:40 6,3 C 86 % 1028,6 hPa 0,0 mm 5,8 km/h (2 Bft) N 360 0 min 0 W/m 4,1 C 5,3 C 10,4 km/h (2 Bft)
12/03/2012 03:50 6,1 C 86 % 1028,5 hPa 0,0 mm 5,0 km/h (1 Bft) N-NE 22 0 min 0 W/m 3,9 C 5,3 C 5,0 km/h (1 Bft)
12/03/2012 04:00 5,9 C 86 % 1028,5 hPa 0,0 mm 4,0 km/h (1 Bft) N-NE 22 0 min 0 W/m 3,7 C 5,9 C 7,9 km/h (2 Bft)
12/03/2012 04:10 5,8 C 86 % 1028,4 hPa 0,0 mm 4,7 km/h (1 Bft) N-NE 22 0 min 0 W/m 3,6 C 5,1 C 4,7 km/h (1 Bft)
12/03/2012 04:20 5,7 C 86 % 1028,3 hPa 0,0 mm 9,4 km/h (2 Bft) N-NE 22 0 min 0 W/m 3,5 C 3,6 C 11,9 km/h (2 Bft)
12/03/2012 04:30 5,6 C 87 % 1028,2 hPa 0,0 mm 7,2 km/h (2 Bft) N-NE 22 0 min 0 W/m 3,6 C 4,1 C 7,9 km/h (2 Bft)
12/03/2012 04:40 5,6 C 87 % 1028,2 hPa 0,0 mm 5,0 km/h (1 Bft) NE 45 0 min 0 W/m 3,6 C 4,8 C 5,0 km/h (1 Bft)
12/03/2012 04:50 5,4 C 87 % 1028,1 hPa 0,0 mm 5,0 km/h (1 Bft) N-NE 22 0 min 0 W/m 3,4 C 4,5 C 7,2 km/h (2 Bft)
12/03/2012 05:00 5,4 C 87 % 1028,1 hPa 0,0 mm 2,9 km/h (1 Bft) N-NE 22 0 min 0 W/m 3,4 C 5,4 C 7,9 km/h (2 Bft)
12/03/2012 05:10 5,3 C 87 % 1028,0 hPa 0,0 mm 2,9 km/h (1 Bft) E-NE 67 0 min 0 W/m 3,3 C 5,3 C 4,0 km/h (1 Bft)
12/03/2012 05:20 5,1 C 87 % 1027,9 hPa 0,0 mm 5,0 km/h (1 Bft) N-NE 22 0 min 0 W/m 3,1 C 4,2 C 6,1 km/h (2 Bft)
12/03/2012 05:30 5,1 C 87 % 1027,8 hPa 0,0 mm 0,0 km/h (0 Bft) N-NE 22 0 min 0 W/m 3,1 C 5,1 C 0,0 km/h (0 Bft)
12/03/2012 05:40 4,9 C 87 % 1027,7 hPa 0,0 mm 4,7 km/h (1 Bft) N-NE 22 0 min 0 W/m 2,9 C 4,1 C 8,3 km/h (2 Bft)
12/03/2012 05:50 4,8 C 87 % 1027,7 hPa 0,0 mm 2,2 km/h (1 Bft) N-NE 22 0 min 0 W/m 2,8 C 4,8 C 3,2 km/h (1 Bft)
12/03/2012 06:00 4,6 C 87 % 1027,6 hPa 0,0 mm 2,2 km/h (1 Bft) NE 45 0 min 0 W/m 2,6 C 4,6 C 4,0 km/h (1 Bft)
12/03/2012 06:10 4,6 C 88 % 1027,6 hPa 0,0 mm 0,0 km/h (0 Bft) NE 45 0 min 0 W/m 2,8 C 4,6 C 3,6 km/h (1 Bft)
12/03/2012 06:20 4,5 C 88 % 1027,5 hPa 0,0 mm 3,2 km/h (1 Bft) N-NE 22 0 min 0 W/m 2,7 C 4,5 C 8,6 km/h (2 Bft)
12/03/2012 06:30 4,5 C 88 % 1027,7 hPa 0,0 mm 5,0 km/h (1 Bft) N-NE 22 0 min 0 W/m 2,7 C 3,5 C 7,2 km/h (2 Bft)
12/03/2012 06:40 4,4 C 88 % 1027,8 hPa 0,0 mm 2,2 km/h (1 Bft) NE 45 0 min 0 W/m 2,6 C 4,4 C 4,3 km/h (1 Bft)
12/03/2012 06:50 4,4 C 88 % 1027,7 hPa 0,0 mm 0,7 km/h (0 Bft) NE 45 0 min 0 W/m 2,6 C 4,4 C 3,6 km/h (1 Bft)
12/03/2012 07:00 4,3 C 88 % 1027,7 hPa 0,0 mm 6,1 km/h (2 Bft) N-NE 22 0 min 0 W/m 2,5 C 2,9 C 10,4 km/h (2 Bft)
12/03/2012 07:10 4,4 C 88 % 1028,0 hPa 0,0 mm 1,4 km/h (1 Bft) NE 45 0 min 0 W/m 2,6 C 4,4 C 3,2 km/h (1 Bft)
12/03/2012 07:20 4,4 C 88 % 1028,2 hPa 0,0 mm 3,2 km/h (1 Bft) N-NE 22 0 min 0 W/m 2,6 C 4,4 C 7,6 km/h (2 Bft)
12/03/2012 07:30 4,4 C 88 % 1028,1 hPa 0,0 mm 4,3 km/h (1 Bft) N-NE 22 2 min 0 W/m 2,6 C 4,4 C 6,8 km/h (2 Bft)
12/03/2012 07:40 4,5 C 88 % 1028,2 hPa 0,0 mm 8,3 km/h (2 Bft) NE 45 2 min 0 W/m 2,7 C 2,5 C 12,2 km/h (2 Bft)
12/03/2012 07:50 4,7 C 88 % 1028,1 hPa 0,0 mm 4,7 km/h (1 Bft) N-NE 22 2 min 0 W/m 2,9 C 3,9 C 8,3 km/h (2 Bft)
12/03/2012 08:00 4,8 C 88 % 1028,2 hPa 0,0 mm 3,2 km/h (1 Bft) NE 45 2 min 0 W/m 3,0 C 4,8 C 7,2 km/h (2 Bft)
12/03/2012 08:10 4,9 C 88 % 1028,2 hPa 0,0 mm 7,9 km/h (2 Bft) N-NE 22 2 min 0 W/m 3,1 C 3,0 C 13,3 km/h (3 Bft)
12/03/2012 08:20 5,1 C 88 % 1028,2 hPa 0,0 mm 6,1 km/h (2 Bft) N-NE 22 2 min 0 W/m 3,3 C 3,8 C 10,8 km/h (2 Bft)
12/03/2012 08:30 5,4 C 87 % 1028,1 hPa 0,0 mm 4,7 km/h (1 Bft) N-NE 22 2 min 0 W/m 3,4 C 4,7 C 4,7 km/h (1 Bft)
12/03/2012 08:40 5,7 C 87 % 1028,1 hPa 0,0 mm 6,5 km/h (2 Bft) N 360 2 min 0 W/m 3,7 C 4,4 C 11,5 km/h (2 Bft)
12/03/2012 08:50 6,1 C 86 % 1028,1 hPa 0,0 mm 8,3 km/h (2 Bft) NE 45 2 min 0 W/m 3,9 C 4,4 C 11,5 km/h (2 Bft)
12/03/2012 09:00 6,4 C 85 % 1028,2 hPa 0,0 mm 3,2 km/h (1 Bft) NE 45 2 min 0 W/m 4,1 C 6,4 C 3,6 km/h (1 Bft)
12/03/2012 09:10 6,8 C 85 % 1028,1 hPa 0,0 mm 3,6 km/h (1 Bft) N-NE 22 2 min 0 W/m 4,5 C 6,8 C 7,6 km/h (2 Bft)
12/03/2012 09:20 7,4 C 83 % 1028,1 hPa 0,0 mm 4,7 km/h (1 Bft) E-NE 67 2 min 0 W/m 4,7 C 6,9 C 11,5 km/h (2 Bft)
12/03/2012 09:30 8,0 C 82 % 1028,2 hPa 0,0 mm 5,0 km/h (1 Bft) N-NE 22 2 min 0 W/m 5,1 C 7,5 C 7,6 km/h (2 Bft)
12/03/2012 09:40 8,4 C 80 % 1028,3 hPa 0,0 mm 3,6 km/h (1 Bft) N-NE 22 2 min 0 W/m 5,2 C 8,4 C 4,0 km/h (1 Bft)
12/03/2012 09:50 8,6 C 78 % 1028,1 hPa 0,0 mm 8,6 km/h (2 Bft) NE 45 2 min 0 W/m 5,0 C 7,2 C 8,6 km/h (2 Bft)
12/03/2012 10:00 8,6 C 78 % 1027,9 hPa 0,0 mm 9,7 km/h (2 Bft) NE 45 2 min 0 W/m 5,0 C 7,0 C 9,7 km/h (2 Bft)
12/03/2012 10:10 8,8 C 78 % 1028,1 hPa 0,0 mm 4,3 km/h (1 Bft) N-NE 22 2 min 0 W/m 5,2 C 8,8 C 7,6 km/h (2 Bft)
12/03/2012 10:20 9,4 C 78 % 1028,0 hPa 0,0 mm 11,2 km/h (2 Bft) N-NE 22 2 min 0 W/m 5,8 C 7,7 C 16,2 km/h (3 Bft)
12/03/2012 10:30 10,0 C 75 % 1028,0 hPa 0,0 mm 17,6 km/h (3 Bft) E-NE 67 2 min 0 W/m 5,8 C 7,6 C 17,6 km/h (3 Bft)
12/03/2012 10:40 10,6 C 75 % 1028,0 hPa 0,0 mm 10,8 km/h (2 Bft) E-NE 67 2 min 0 W/m 6,4 C 10,6 C 22,3 km/h (4 Bft)
12/03/2012 10:50 11,2 C 73 % 1028,1 hPa 0,0 mm 9,7 km/h (2 Bft) NE 45 2 min 0 W/m 6,5 C 11,2 C 12,6 km/h (3 Bft)
12/03/2012 11:00 12,0 C 70 % 1028,1 hPa 0,0 mm 8,3 km/h (2 Bft) E-NE 67 2 min 0 W/m 6,7 C 12,0 C 14,0 km/h (3 Bft)
12/03/2012 11:10 12,5 C 67 % 1028,3 hPa 0,0 mm 9,0 km/h (2 Bft) N-NE 22 2 min 0 W/m 6,5 C 12,5 C 9,0 km/h (2 Bft)
12/03/2012 11:20 12,9 C 63 % 1028,2 hPa 0,0 mm 10,8 km/h (2 Bft) N 360 2 min 0 W/m 6,0 C 12,9 C 11,5 km/h (2 Bft)
12/03/2012 11:30 12,9 C 63 % 1028,0 hPa 0,0 mm 12,6 km/h (3 Bft) NE 45 2 min 0 W/m 6,0 C 12,9 C 18,7 km/h (3 Bft)
12/03/2012 11:40 12,7 C 64 % 1028,0 hPa 0,0 mm 10,1 km/h (2 Bft) NE 45 2 min 0 W/m 6,1 C 12,7 C 10,1 km/h (2 Bft)
12/03/2012 11:50 12,9 C 64 % 1027,9 hPa 0,0 mm 9,7 km/h (2 Bft) NE 45 2 min 0 W/m 6,3 C 12,9 C 15,1 km/h (3 Bft)
12/03/2012 12:00 13,8 C 61 % 1027,8 hPa 0,0 mm 14,4 km/h (3 Bft) E 90 2 min 0 W/m 6,4 C 13,8 C 23,4 km/h (4 Bft)
12/03/2012 12:10 14,3 C 61 % 1027,8 hPa 0,0 mm 8,6 km/h (2 Bft) E-NE 67 2 min 0 W/m 6,9 C 14,3 C 8,6 km/h (2 Bft)
12/03/2012 12:20 14,8 C 59 % 1027,9 hPa 0,0 mm 10,4 km/h (2 Bft) E 90 2 min 0 W/m 6,9 C 14,8 C 16,6 km/h (3 Bft)
12/03/2012 12:30 15,2 C 57 % 1027,9 hPa 0,0 mm 13,7 km/h (3 Bft) E 90 2 min 0 W/m 6,7 C 15,2 C 22,0 km/h (4 Bft)
12/03/2012 12:40 15,4 C 56 % 1027,9 hPa 0,0 mm 10,8 km/h (2 Bft) N-NE 22 2 min 0 W/m 6,7 C 15,4 C 14,0 km/h (3 Bft)
12/03/2012 12:50 15,6 C 56 % 1028,1 hPa 0,0 mm 10,1 km/h (2 Bft) NE 45 2 min 0 W/m 6,9 C 15,6 C 16,2 km/h (3 Bft)
12/03/2012 13:00 15,8 C 56 % 1028,1 hPa 0,0 mm 10,1 km/h (2 Bft) NE 45 2 min 0 W/m 7,0 C 15,8 C 10,4 km/h (2 Bft)
12/03/2012 13:10 15,9 C 54 % 1028,1 hPa 0,0 mm 11,2 km/h (2 Bft) NE 45 2 min 0 W/m 6,6 C 15,9 C 15,8 km/h (3 Bft)
12/03/2012 13:20 16,0 C 56 % 1028,2 hPa 0,0 mm 9,0 km/h (2 Bft) E 90 2 min 0 W/m 7,2 C 16,0 C 10,1 km/h (2 Bft)
12/03/2012 13:30 16,0 C 55 % 1028,0 hPa 0,0 mm 12,2 km/h (2 Bft) N-NE 22 2 min 0 W/m 7,0 C 16,0 C 18,7 km/h (3 Bft)
12/03/2012 13:40 15,9 C 55 % 1027,6 hPa 0,0 mm 14,0 km/h (3 Bft) N-NE 22 2 min 0 W/m 6,9 C 15,9 C 20,2 km/h (4 Bft)
12/03/2012 13:50 15,8 C 56 % 1027,7 hPa 0,0 mm 10,1 km/h (2 Bft) NE 45 2 min 0 W/m 7,0 C 15,8 C 13,0 km/h (3 Bft)
12/03/2012 14:00 16,0 C 56 % 1027,6 hPa 0,0 mm 10,1 km/h (2 Bft) NE 45 2 min 0 W/m 7,2 C 16,0 C 13,7 km/h (3 Bft)
12/03/2012 14:10 16,1 C 55 % 1027,5 hPa 0,0 mm 7,9 km/h (2 Bft) N-NE 22 2 min 0 W/m 7,1 C 16,1 C 13,3 km/h (3 Bft)
12/03/2012 14:20 16,1 C 55 % 1027,4 hPa 0,0 mm 10,1 km/h (2 Bft) NE 45 2 min 0 W/m 7,1 C 16,1 C 14,8 km/h (3 Bft)
_ Min-Heure 07:00 13:10 14:20 - 06:10 - - - - 07:00 07:40 05:30
Minimum _ 4,3 C 54 % 1027,4 hPa - 0,0 km/h (0 Bft) - - - - 2,5 C 2,5 C 0,0 km/h (0 Bft)
_ Max-Heure 14:20 08:20 02:20 14:20 10:30 - - 14:20 14:20 14:00 14:20 12:00
Maximum _ 16,1 C 88 % 1029,0 hPa 0,0 mm 17,6 km/h
E-NE (3 Bft)
- - 2 min 0 W/m 7,2 C 16,1 C 23,4 km/h
E (4 Bft)
Moyenne _ 8,6 C 78 % 1028,2 hPa #0,0 mm 7,2 km/h (2 Bft) N-NE - #1:24 h 0 W/m 4,8 C 8,0 C 10,2 km/h (2 Bft)
Saint Bonnet de Bellac- Haute Vienne - France